sensor_id;sensor_type;location;lat;lon;timestamp;pressure;altitude;pressure_sealevel;temperature;humidity
61337;BME280;47212;41.326;2.104;2023-04-22T00:00:27;100980.63;;;16.50;75.60
61337;BME280;47212;41.326;2.104;2023-04-22T00:05:29;100992.78;;;16.44;74.49
61337;BME280;47212;41.326;2.104;2023-04-22T00:10:32;100990.38;;;16.38;73.65
61337;BME280;47212;41.326;2.104;2023-04-22T00:15:34;100996.78;;;16.33;73.64
61337;BME280;47212;41.326;2.104;2023-04-22T00:20:36;101006.41;;;16.31;73.05
61337;BME280;47212;41.326;2.104;2023-04-22T00:25:40;101007.00;;;16.28;73.35
61337;BME280;47212;41.326;2.104;2023-04-22T00:30:42;101010.03;;;16.26;72.66
61337;BME280;47212;41.326;2.104;2023-04-22T00:35:47;101010.94;;;16.21;72.25
61337;BME280;47212;41.326;2.104;2023-04-22T00:40:50;101005.19;;;16.18;72.46
61337;BME280;47212;41.326;2.104;2023-04-22T00:45:52;101008.53;;;16.15;72.45
61337;BME280;47212;41.326;2.104;2023-04-22T00:50:54;101003.34;;;16.13;71.74
61337;BME280;47212;41.326;2.104;2023-04-22T00:55:57;101011.41;;;16.05;71.96
61337;BME280;47212;41.326;2.104;2023-04-22T01:05:12;101011.28;;;15.91;71.64
61337;BME280;47212;41.326;2.104;2023-04-22T01:10:14;101012.16;;;15.86;71.34
61337;BME280;47212;41.326;2.104;2023-04-22T01:15:16;101011.09;;;15.82;70.13
61337;BME280;47212;41.326;2.104;2023-04-22T01:20:19;101019.34;;;15.82;71.22
61337;BME280;47212;41.326;2.104;2023-04-22T01:25:23;101003.44;;;15.79;71.21
61337;BME280;47212;41.326;2.104;2023-04-22T01:30:26;100999.06;;;15.78;70.98
61337;BME280;47212;41.326;2.104;2023-04-22T01:35:29;101000.19;;;15.77;71.31
61337;BME280;47212;41.326;2.104;2023-04-22T01:40:38;101006.78;;;15.76;70.93
61337;BME280;47212;41.326;2.104;2023-04-22T01:45:41;101009.00;;;15.74;71.28
61337;BME280;47212;41.326;2.104;2023-04-22T01:50:45;101004.63;;;15.73;71.16
61337;BME280;47212;41.326;2.104;2023-04-22T01:55:48;100999.94;;;15.74;71.53
61337;BME280;47212;41.326;2.104;2023-04-22T02:00:51;100997.50;;;15.72;71.40
61337;BME280;47212;41.326;2.104;2023-04-22T02:05:53;101001.91;;;15.68;70.65
61337;BME280;47212;41.326;2.104;2023-04-22T02:10:55;101010.16;;;15.68;71.37
61337;BME280;47212;41.326;2.104;2023-04-22T02:15:59;101006.59;;;15.68;71.22
61337;BME280;47212;41.326;2.104;2023-04-22T02:21:02;101015.13;;;15.66;71.50
61337;BME280;47212;41.326;2.104;2023-04-22T02:26:04;101018.16;;;15.65;71.19
61337;BME280;47212;41.326;2.104;2023-04-22T02:31:07;101021.47;;;15.62;71.19
61337;BME280;47212;41.326;2.104;2023-04-22T02:36:09;101025.88;;;15.57;71.17
61337;BME280;47212;41.326;2.104;2023-04-22T02:41:12;101023.44;;;15.51;70.93
61337;BME280;47212;41.326;2.104;2023-04-22T02:46:15;101021.25;;;15.48;70.94
61337;BME280;47212;41.326;2.104;2023-04-22T02:51:18;101021.31;;;15.43;71.30
61337;BME280;47212;41.326;2.104;2023-04-22T02:56:19;101035.34;;;15.36;71.12
61337;BME280;47212;41.326;2.104;2023-04-22T03:01:22;101039.50;;;15.34;71.37
61337;BME280;47212;41.326;2.104;2023-04-22T03:06:25;101028.53;;;15.34;71.29
61337;BME280;47212;41.326;2.104;2023-04-22T03:11:27;101043.34;;;15.33;71.29
61337;BME280;47212;41.326;2.104;2023-04-22T03:16:29;101039.50;;;15.34;71.71
61337;BME280;47212;41.326;2.104;2023-04-22T03:21:36;101043.88;;;15.35;71.45
61337;BME280;47212;41.326;2.104;2023-04-22T03:26:39;101046.03;;;15.38;71.79
61337;BME280;47212;41.326;2.104;2023-04-22T03:31:41;101038.91;;;15.37;71.23
61337;BME280;47212;41.326;2.104;2023-04-22T03:36:44;101039.44;;;15.39;71.54
61337;BME280;47212;41.326;2.104;2023-04-22T03:41:46;101036.94;;;15.42;71.37
61337;BME280;47212;41.326;2.104;2023-04-22T03:46:49;101038.59;;;15.43;72.04
61337;BME280;47212;41.326;2.104;2023-04-22T03:51:56;101035.56;;;15.45;71.73
61337;BME280;47212;41.326;2.104;2023-04-22T03:56:59;101033.91;;;15.44;71.92
61337;BME280;47212;41.326;2.104;2023-04-22T04:07:45;101039.97;;;15.41;71.94
61337;BME280;47212;41.326;2.104;2023-04-22T04:12:48;101029.00;;;15.41;71.93
61337;BME280;47212;41.326;2.104;2023-04-22T04:17:50;101030.41;;;15.38;71.51
61337;BME280;47212;41.326;2.104;2023-04-22T04:22:54;101024.66;;;15.35;71.61
61337;BME280;47212;41.326;2.104;2023-04-22T04:27:56;101023.03;;;15.34;71.73
61337;BME280;47212;41.326;2.104;2023-04-22T04:32:58;101019.75;;;15.32;71.71
61337;BME280;47212;41.326;2.104;2023-04-22T04:38:01;101017.00;;;15.32;71.99
61337;BME280;47212;41.326;2.104;2023-04-22T04:43:04;101020.34;;;15.28;72.35
61337;BME280;47212;41.326;2.104;2023-04-22T04:48:17;101016.53;;;15.24;72.49
61337;BME280;47212;41.326;2.104;2023-04-22T04:53:26;101012.72;;;15.20;72.45
61337;BME280;47212;41.326;2.104;2023-04-22T04:58:29;101013.28;;;15.17;72.19
61337;BME280;47212;41.326;2.104;2023-04-22T05:03:43;101023.78;;;15.10;72.28
61337;BME280;47212;41.326;2.104;2023-04-22T05:08:48;101028.19;;;15.06;72.51
61337;BME280;47212;41.326;2.104;2023-04-22T05:13:52;101016.16;;;15.02;72.38
61337;BME280;47212;41.326;2.104;2023-04-22T05:19:03;101019.75;;;14.97;72.84
61337;BME280;47212;41.326;2.104;2023-04-22T05:24:07;101015.66;;;14.95;72.61
61337;BME280;47212;41.326;2.104;2023-04-22T05:29:09;101021.13;;;14.95;72.83
61337;BME280;47212;41.326;2.104;2023-04-22T05:34:12;101026.91;;;14.93;72.95
61337;BME280;47212;41.326;2.104;2023-04-22T05:39:14;101024.44;;;14.92;72.63
61337;BME280;47212;41.326;2.104;2023-04-22T05:44:17;101033.22;;;14.94;72.73
61337;BME280;47212;41.326;2.104;2023-04-22T05:49:19;101026.91;;;14.93;73.33
61337;BME280;47212;41.326;2.104;2023-04-22T05:54:40;101034.81;;;15.00;72.64
61337;BME280;47212;41.326;2.104;2023-04-22T05:59:42;101031.50;;;15.03;72.75
61337;BME280;47212;41.326;2.104;2023-04-22T06:04:44;101036.69;;;15.05;72.64
61337;BME280;47212;41.326;2.104;2023-04-22T06:09:47;101043.78;;;15.11;72.04
61337;BME280;47212;41.326;2.104;2023-04-22T06:14:50;101044.56;;;15.16;72.41
61337;BME280;47212;41.326;2.104;2023-04-22T06:19:52;101045.06;;;15.23;72.97
61337;BME280;47212;41.326;2.104;2023-04-22T06:24:55;101043.06;;;15.34;72.26
61337;BME280;47212;41.326;2.104;2023-04-22T06:29:57;101052.31;;;15.43;72.86
61337;BME280;47212;41.326;2.104;2023-04-22T06:34:59;101052.75;;;15.55;72.37
61337;BME280;47212;41.326;2.104;2023-04-22T06:40:01;101040.63;;;15.67;72.57
61337;BME280;47212;41.326;2.104;2023-04-22T06:45:24;101055.59;;;15.79;73.02
61337;BME280;47212;41.326;2.104;2023-04-22T06:50:44;101056.72;;;16.02;71.99
61337;BME280;47212;41.326;2.104;2023-04-22T06:55:46;101056.09;;;16.34;72.10
61337;BME280;47212;41.326;2.104;2023-04-22T07:00:49;101047.50;;;16.65;71.26
61337;BME280;47212;41.326;2.104;2023-04-22T07:05:51;101044.25;;;17.00;70.35
61337;BME280;47212;41.326;2.104;2023-04-22T07:10:54;101060.25;;;17.36;69.59
61337;BME280;47212;41.326;2.104;2023-04-22T07:16:08;101062.41;;;17.71;68.61
61337;BME280;47212;41.326;2.104;2023-04-22T07:21:10;101056.44;;;17.97;68.21
61337;BME280;47212;41.326;2.104;2023-04-22T07:26:12;101056.78;;;18.23;68.01
61337;BME280;47212;41.326;2.104;2023-04-22T07:31:15;101060.56;;;18.40;67.14
61337;BME280;47212;41.326;2.104;2023-04-22T07:36:17;101055.66;;;18.65;66.97
61337;BME280;47212;41.326;2.104;2023-04-22T07:41:19;101049.91;;;18.89;66.60
61337;BME280;47212;41.326;2.104;2023-04-22T07:46:22;101048.72;;;19.17;65.95
61337;BME280;47212;41.326;2.104;2023-04-22T07:51:24;101047.41;;;19.37;65.08
61337;BME280;47212;41.326;2.104;2023-04-22T07:56:26;101055.94;;;19.49;65.00
61337;BME280;47212;41.326;2.104;2023-04-22T08:01:28;101048.69;;;19.53;64.25
61337;BME280;47212;41.326;2.104;2023-04-22T08:06:30;101046.16;;;19.65;63.51
61337;BME280;47212;41.326;2.104;2023-04-22T08:11:33;101046.53;;;19.72;63.10
61337;BME280;47212;41.326;2.104;2023-04-22T08:16:36;101043.97;;;19.85;63.09
61337;BME280;47212;41.326;2.104;2023-04-22T08:21:39;101048.50;;;20.03;62.73
61337;BME280;47212;41.326;2.104;2023-04-22T08:26:41;101053.94;;;20.25;62.24
61337;BME280;47212;41.326;2.104;2023-04-22T08:31:43;101055.66;;;20.44;61.53
61337;BME280;47212;41.326;2.104;2023-04-22T08:36:45;101050.13;;;20.44;61.34
61337;BME280;47212;41.326;2.104;2023-04-22T08:41:48;101051.63;;;20.58;60.54
61337;BME280;47212;41.326;2.104;2023-04-22T08:46:51;101051.81;;;20.62;60.32
61337;BME280;47212;41.326;2.104;2023-04-22T08:51:54;101050.50;;;20.68;60.01
61337;BME280;47212;41.326;2.104;2023-04-22T08:56:57;101049.59;;;20.81;59.56
61337;BME280;47212;41.326;2.104;2023-04-22T09:02:01;101049.59;;;20.90;58.58
61337;BME280;47212;41.326;2.104;2023-04-22T09:07:03;101042.75;;;21.05;58.50
61337;BME280;47212;41.326;2.104;2023-04-22T09:12:06;101049.59;;;20.98;58.09
61337;BME280;47212;41.326;2.104;2023-04-22T09:17:08;101043.09;;;20.94;58.29
61337;BME280;47212;41.326;2.104;2023-04-22T09:22:11;101044.06;;;20.98;58.21
61337;BME280;47212;41.326;2.104;2023-04-22T09:27:16;101053.00;;;20.95;58.03
61337;BME280;47212;41.326;2.104;2023-04-22T09:32:19;101046.50;;;21.00;58.01
61337;BME280;47212;41.326;2.104;2023-04-22T09:37:24;101042.28;;;21.03;57.39
61337;BME280;47212;41.326;2.104;2023-04-22T09:42:50;101045.69;;;21.17;56.58
61337;BME280;47212;41.326;2.104;2023-04-22T09:47:54;101044.91;;;21.25;57.49
61337;BME280;47212;41.326;2.104;2023-04-22T09:53:08;101049.75;;;21.45;56.68
61337;BME280;47212;41.326;2.104;2023-04-22T09:58:12;101043.25;;;21.33;57.47
61337;BME280;47212;41.326;2.104;2023-04-22T10:03:15;101049.94;;;21.23;58.09
61337;BME280;47212;41.326;2.104;2023-04-22T10:08:17;101044.72;;;21.30;57.99
61337;BME280;47212;41.326;2.104;2023-04-22T10:13:19;101051.09;;;21.30;57.88
61337;BME280;47212;41.326;2.104;2023-04-22T10:18:24;101053.00;;;21.21;57.47
61337;BME280;47212;41.326;2.104;2023-04-22T10:23:31;101054.66;;;21.05;57.68
61337;BME280;47212;41.326;2.104;2023-04-22T10:28:33;101058.69;;;20.90;58.38
61337;BME280;47212;41.326;2.104;2023-04-22T10:33:37;101049.53;;;20.73;58.96
61337;BME280;47212;41.326;2.104;2023-04-22T10:44:06;101047.09;;;20.71;59.42
61337;BME280;47212;41.326;2.104;2023-04-22T10:49:13;101047.91;;;20.80;59.02
61337;BME280;47212;41.326;2.104;2023-04-22T10:59:40;101060.16;;;20.88;59.50
61337;BME280;47212;41.326;2.104;2023-04-22T11:04:42;101045.53;;;20.96;59.20
61337;BME280;47212;41.326;2.104;2023-04-22T11:09:49;101048.94;;;21.02;59.13
61337;BME280;47212;41.326;2.104;2023-04-22T11:14:52;101043.09;;;20.94;59.36
61337;BME280;47212;41.326;2.104;2023-04-22T11:19:56;101047.47;;;20.95;58.81
61337;BME280;47212;41.326;2.104;2023-04-22T11:24:59;101032.50;;;21.05;59.09
61337;BME280;47212;41.326;2.104;2023-04-22T11:35:14;101031.53;;;20.92;58.42
61337;BME280;47212;41.326;2.104;2023-04-22T11:40:19;101031.66;;;20.79;59.26
61337;BME280;47212;41.326;2.104;2023-04-22T11:45:33;101040.09;;;20.65;59.54
61337;BME280;47212;41.326;2.104;2023-04-22T11:50:38;101029.97;;;20.52;59.91
61337;BME280;47212;41.326;2.104;2023-04-22T11:55:41;101025.88;;;20.41;60.64
61337;BME280;47212;41.326;2.104;2023-04-22T12:05:54;101027.56;;;20.67;60.41
61337;BME280;47212;41.326;2.104;2023-04-22T12:10:58;101030.16;;;20.55;60.43
61337;BME280;47212;41.326;2.104;2023-04-22T12:16:08;101023.50;;;20.65;60.80
61337;BME280;47212;41.326;2.104;2023-04-22T12:21:12;101024.78;;;20.59;60.67
61337;BME280;47212;41.326;2.104;2023-04-22T12:26:16;101029.81;;;20.57;60.26
61337;BME280;47212;41.326;2.104;2023-04-22T12:31:18;101027.41;;;20.64;60.81
61337;BME280;47212;41.326;2.104;2023-04-22T12:36:21;101030.31;;;20.59;60.80
61337;BME280;47212;41.326;2.104;2023-04-22T12:41:23;101038.44;;;20.47;60.83
61337;BME280;47212;41.326;2.104;2023-04-22T12:46:26;101034.53;;;20.48;60.53
61337;BME280;47212;41.326;2.104;2023-04-22T12:51:28;101028.81;;;20.44;61.20
61337;BME280;47212;41.326;2.104;2023-04-22T12:56:30;101027.50;;;20.42;60.54
61337;BME280;47212;41.326;2.104;2023-04-22T13:01:32;101019.50;;;20.31;61.24
61337;BME280;47212;41.326;2.104;2023-04-22T13:06:36;101013.44;;;20.21;61.52
61337;BME280;47212;41.326;2.104;2023-04-22T13:11:39;101008.38;;;20.14;61.03
61337;BME280;47212;41.326;2.104;2023-04-22T13:16:41;100994.88;;;20.13;61.33
61337;BME280;47212;41.326;2.104;2023-04-22T13:21:43;101006.28;;;20.20;59.62
61337;BME280;47212;41.326;2.104;2023-04-22T13:26:46;100991.34;;;20.29;60.01
61337;BME280;47212;41.326;2.104;2023-04-22T13:31:48;100980.97;;;20.35;59.78
61337;BME280;47212;41.326;2.104;2023-04-22T13:36:50;100986.22;;;20.54;59.26
61337;BME280;47212;41.326;2.104;2023-04-22T13:41:52;100991.25;;;20.52;58.92
61337;BME280;47212;41.326;2.104;2023-04-22T13:46:54;100994.84;;;20.61;57.89
61337;BME280;47212;41.326;2.104;2023-04-22T13:51:57;100985.41;;;20.62;57.51
61337;BME280;47212;41.326;2.104;2023-04-22T13:56:59;100995.66;;;20.61;57.41
61337;BME280;47212;41.326;2.104;2023-04-22T14:02:01;100984.13;;;20.68;57.85
61337;BME280;47212;41.326;2.104;2023-04-22T14:07:03;100990.66;;;20.89;57.34
61337;BME280;47212;41.326;2.104;2023-04-22T14:12:07;100970.81;;;20.96;56.48
61337;BME280;47212;41.326;2.104;2023-04-22T14:17:09;100966.88;;;21.06;56.80
61337;BME280;47212;41.326;2.104;2023-04-22T14:22:12;100976.00;;;21.15;56.73
61337;BME280;47212;41.326;2.104;2023-04-22T14:27:14;100962.31;;;21.18;56.27
61337;BME280;47212;41.326;2.104;2023-04-22T14:32:16;100961.84;;;21.08;56.28
61337;BME280;47212;41.326;2.104;2023-04-22T14:37:19;100949.97;;;20.81;57.48
61337;BME280;47212;41.326;2.104;2023-04-22T14:42:24;100947.19;;;20.73;59.72
61337;BME280;47212;41.326;2.104;2023-04-22T14:47:26;100939.84;;;20.51;61.23
61337;BME280;47212;41.326;2.104;2023-04-22T14:52:30;100930.03;;;20.27;61.63
61337;BME280;47212;41.326;2.104;2023-04-22T14:57:32;100926.13;;;20.11;62.02
61337;BME280;47212;41.326;2.104;2023-04-22T15:02:35;100930.00;;;20.01;62.53
61337;BME280;47212;41.326;2.104;2023-04-22T15:07:37;100907.34;;;19.91;63.10
61337;BME280;47212;41.326;2.104;2023-04-22T15:12:39;100898.06;;;19.87;63.72
61337;BME280;47212;41.326;2.104;2023-04-22T15:17:41;100891.25;;;19.93;63.52
61337;BME280;47212;41.326;2.104;2023-04-22T15:22:44;100880.84;;;19.90;64.01
61337;BME280;47212;41.326;2.104;2023-04-22T15:27:46;100907.28;;;19.73;64.30
61337;BME280;47212;41.326;2.104;2023-04-22T15:32:49;100909.19;;;19.56;66.14
61337;BME280;47212;41.326;2.104;2023-04-22T15:37:51;100915.34;;;19.53;66.13
61337;BME280;47212;41.326;2.104;2023-04-22T15:42:54;100924.47;;;19.62;66.16
61337;BME280;47212;41.326;2.104;2023-04-22T15:47:57;100937.81;;;19.68;66.54
61337;BME280;47212;41.326;2.104;2023-04-22T15:52:59;100931.16;;;19.69;66.46
61337;BME280;47212;41.326;2.104;2023-04-22T15:58:01;100921.75;;;19.70;66.06
61337;BME280;47212;41.326;2.104;2023-04-22T16:03:03;100933.09;;;19.69;66.24
61337;BME280;47212;41.326;2.104;2023-04-22T16:08:06;100930.81;;;19.62;66.35
61337;BME280;47212;41.326;2.104;2023-04-22T16:13:09;100936.28;;;19.54;66.22
61337;BME280;47212;41.326;2.104;2023-04-22T16:18:12;100935.34;;;19.58;66.66
61337;BME280;47212;41.326;2.104;2023-04-22T16:25:15;100937.59;;;19.56;67.74
61337;BME280;47212;41.326;2.104;2023-04-22T16:30:17;100935.72;;;19.43;68.49
61337;BME280;47212;41.326;2.104;2023-04-22T16:35:19;100937.63;;;19.34;68.33
61337;BME280;47212;41.326;2.104;2023-04-22T16:40:21;100939.47;;;19.16;69.40
61337;BME280;47212;41.326;2.104;2023-04-22T16:45:23;100924.41;;;19.00;69.97
61337;BME280;47212;41.326;2.104;2023-04-22T16:50:25;100930.78;;;18.87;70.94
61337;BME280;47212;41.326;2.104;2023-04-22T16:55:28;100959.69;;;18.89;71.45
61337;BME280;47212;41.326;2.104;2023-04-22T17:00:30;100946.53;;;18.86;72.62
61337;BME280;47212;41.326;2.104;2023-04-22T17:05:32;100957.56;;;18.86;73.11
61337;BME280;47212;41.326;2.104;2023-04-22T17:10:34;100952.91;;;18.73;73.40
61337;BME280;47212;41.326;2.104;2023-04-22T17:15:38;100944.97;;;18.58;73.45
61337;BME280;47212;41.326;2.104;2023-04-22T17:20:40;100948.47;;;18.50;74.06
61337;BME280;47212;41.326;2.104;2023-04-22T17:25:42;100947.56;;;18.40;75.08
61337;BME280;47212;41.326;2.104;2023-04-22T17:30:47;100952.06;;;18.36;75.61
61337;BME280;47212;41.326;2.104;2023-04-22T17:35:49;100942.09;;;18.27;76.82
61337;BME280;47212;41.326;2.104;2023-04-22T17:40:52;100955.75;;;18.18;76.91
61337;BME280;47212;41.326;2.104;2023-04-22T17:45:54;100938.81;;;18.11;76.88
61337;BME280;47212;41.326;2.104;2023-04-22T17:50:57;100939.44;;;18.08;77.42
61337;BME280;47212;41.326;2.104;2023-04-22T17:56:02;100942.19;;;18.08;77.38
61337;BME280;47212;41.326;2.104;2023-04-22T18:01:05;100956.06;;;18.03;77.65
61337;BME280;47212;41.326;2.104;2023-04-22T18:06:07;100973.81;;;17.97;78.09
61337;BME280;47212;41.326;2.104;2023-04-22T18:11:10;100980.56;;;17.91;78.81
61337;BME280;47212;41.326;2.104;2023-04-22T18:16:12;100979.31;;;17.83;79.38
61337;BME280;47212;41.326;2.104;2023-04-22T18:21:14;100981.56;;;17.81;80.07
61337;BME280;47212;41.326;2.104;2023-04-22T18:26:16;100991.97;;;17.84;79.71
61337;BME280;47212;41.326;2.104;2023-04-22T18:31:19;101000.34;;;17.93;79.52
61337;BME280;47212;41.326;2.104;2023-04-22T18:36:21;100996.06;;;17.87;80.03
61337;BME280;47212;41.326;2.104;2023-04-22T18:41:24;100997.28;;;17.80;79.64
61337;BME280;47212;41.326;2.104;2023-04-22T18:46:29;101010.84;;;17.77;80.33
61337;BME280;47212;41.326;2.104;2023-04-22T18:51:31;101010.09;;;17.71;80.54
61337;BME280;47212;41.326;2.104;2023-04-22T18:56:34;101014.28;;;17.69;80.50
61337;BME280;47212;41.326;2.104;2023-04-22T19:01:36;101008.84;;;17.64;81.11
61337;BME280;47212;41.326;2.104;2023-04-22T19:06:38;101010.34;;;17.56;81.21
61337;BME280;47212;41.326;2.104;2023-04-22T19:11:41;101022.47;;;17.55;81.91
61337;BME280;47212;41.326;2.104;2023-04-22T19:16:43;101029.63;;;17.56;81.96
61337;BME280;47212;41.326;2.104;2023-04-22T19:21:45;101029.63;;;17.56;82.19
61337;BME280;47212;41.326;2.104;2023-04-22T19:26:47;101042.88;;;17.54;81.95
61337;BME280;47212;41.326;2.104;2023-04-22T19:31:50;101040.72;;;17.51;82.26
61337;BME280;47212;41.326;2.104;2023-04-22T19:36:52;101039.38;;;17.48;81.82
61337;BME280;47212;41.326;2.104;2023-04-22T19:41:55;101052.94;;;17.45;81.71
61337;BME280;47212;41.326;2.104;2023-04-22T19:47:00;101060.66;;;17.43;81.68
61337;BME280;47212;41.326;2.104;2023-04-22T19:52:02;101059.03;;;17.42;81.34
61337;BME280;47212;41.326;2.104;2023-04-22T19:57:06;101057.72;;;17.39;81.48
61337;BME280;47212;41.326;2.104;2023-04-22T20:02:08;101065.66;;;17.41;80.81
61337;BME280;47212;41.326;2.104;2023-04-22T20:07:11;101055.16;;;17.43;80.83
61337;BME280;47212;41.326;2.104;2023-04-22T20:12:15;101053.97;;;17.49;80.77
61337;BME280;47212;41.326;2.104;2023-04-22T20:17:17;101049.19;;;17.55;80.66
61337;BME280;47212;41.326;2.104;2023-04-22T20:22:22;101054.91;;;17.58;80.31
61337;BME280;47212;41.326;2.104;2023-04-22T20:27:25;101050.44;;;17.62;79.72
61337;BME280;47212;41.326;2.104;2023-04-22T20:32:28;101035.56;;;17.63;79.61
61337;BME280;47212;41.326;2.104;2023-04-22T20:37:30;101033.31;;;17.65;79.11
61337;BME280;47212;41.326;2.104;2023-04-22T20:42:33;101046.81;;;17.67;79.38
61337;BME280;47212;41.326;2.104;2023-04-22T20:47:37;101044.56;;;17.69;78.95
61337;BME280;47212;41.326;2.104;2023-04-22T20:52:39;101039.88;;;17.69;78.67
61337;BME280;47212;41.326;2.104;2023-04-22T20:57:42;101029.06;;;17.73;78.69
61337;BME280;47212;41.326;2.104;2023-04-22T21:02:45;101047.22;;;17.74;78.50
61337;BME280;47212;41.326;2.104;2023-04-22T21:07:50;101037.03;;;17.74;78.61
61337;BME280;47212;41.326;2.104;2023-04-22T21:12:53;101048.88;;;17.75;78.37
61337;BME280;47212;41.326;2.104;2023-04-22T21:17:56;101041.72;;;17.74;78.68
61337;BME280;47212;41.326;2.104;2023-04-22T21:22:59;101049.69;;;17.75;78.14
61337;BME280;47212;41.326;2.104;2023-04-22T21:28:02;101048.03;;;17.74;77.97
61337;BME280;47212;41.326;2.104;2023-04-22T21:33:05;101038.66;;;17.75;78.09
61337;BME280;47212;41.326;2.104;2023-04-22T21:38:07;101049.69;;;17.75;78.37
61337;BME280;47212;41.326;2.104;2023-04-22T21:43:09;101051.31;;;17.76;77.65
61337;BME280;47212;41.326;2.104;2023-04-22T21:48:12;101053.75;;;17.78;77.81
61337;BME280;47212;41.326;2.104;2023-04-22T21:53:15;101042.75;;;17.78;77.40
61337;BME280;47212;41.326;2.104;2023-04-22T21:58:20;101060.91;;;17.79;77.50
61337;BME280;47212;41.326;2.104;2023-04-22T22:03:23;101071.91;;;17.79;77.68
61337;BME280;47212;41.326;2.104;2023-04-22T22:08:25;101086.50;;;17.79;77.52
61337;BME280;47212;41.326;2.104;2023-04-22T22:13:28;101087.41;;;17.75;77.39
61337;BME280;47212;41.326;2.104;2023-04-22T22:18:30;101091.06;;;17.70;77.66
61337;BME280;47212;41.326;2.104;2023-04-22T22:23:32;101095.25;;;17.68;77.87
61337;BME280;47212;41.326;2.104;2023-04-22T22:28:41;101102.13;;;17.65;78.17
61337;BME280;47212;41.326;2.104;2023-04-22T22:33:43;101100.19;;;17.66;78.28
61337;BME280;47212;41.326;2.104;2023-04-22T22:38:49;101104.88;;;17.65;78.53
61337;BME280;47212;41.326;2.104;2023-04-22T22:43:51;101106.56;;;17.66;78.75
61337;BME280;47212;41.326;2.104;2023-04-22T22:48:54;101111.47;;;17.69;78.38
61337;BME280;47212;41.326;2.104;2023-04-22T22:53:57;101112.28;;;17.70;78.39
61337;BME280;47212;41.326;2.104;2023-04-22T22:58:59;101118.59;;;17.70;78.56
61337;BME280;47212;41.326;2.104;2023-04-22T23:04:02;101113.69;;;17.67;78.87
61337;BME280;47212;41.326;2.104;2023-04-22T23:09:05;101106.09;;;17.59;79.18
61337;BME280;47212;41.326;2.104;2023-04-22T23:14:08;101107.50;;;17.57;79.38
61337;BME280;47212;41.326;2.104;2023-04-22T23:19:14;101108.94;;;17.54;79.93
61337;BME280;47212;41.326;2.104;2023-04-22T23:24:18;101116.06;;;17.55;79.53
61337;BME280;47212;41.326;2.104;2023-04-22T23:29:21;101121.56;;;17.55;79.42
61337;BME280;47212;41.326;2.104;2023-04-22T23:34:24;101133.69;;;17.54;79.65
61337;BME280;47212;41.326;2.104;2023-04-22T23:39:27;101133.19;;;17.52;79.83
61337;BME280;47212;41.326;2.104;2023-04-22T23:44:29;101135.13;;;17.51;80.63
61337;BME280;47212;41.326;2.104;2023-04-22T23:49:31;101151.31;;;17.53;80.60
61337;BME280;47212;41.326;2.104;2023-04-22T23:54:33;101140.31;;;17.53;80.46
61337;BME280;47212;41.326;2.104;2023-04-22T23:59:36;101138.16;;;17.50;80.39
